This is the latest recevied weather packets stored in our database for station/object G4TNU-0. If no packets are shown the sender has not sent any weather packets the latest 10 day(s).
| Time | Temp. | Humidity | Pressure | Rain* | Wind** | Luminosity | Snow |
|---|---|---|---|---|---|---|---|
| 1777300211 | 20.56° C | 38% | 1017.9 hPa | 0 mm | - | - | - |
| 1777298411 | 20.56° C | 37% | 1018.2 hPa | 0 mm | - | - | - |
| 1777296610 | 20° C | 36% | 1018.9 hPa | 0 mm | - | - | - |
| 1777294811 | 20° C | 33% | 1018.9 hPa | 0 mm | - | - | - |
| 1777291210 | 18.89° C | 40% | 1019.3 hPa | 0 mm | - | - | - |
| 1777289410 | 19.44° C | 40% | 1019.6 hPa | 0 mm | - | - | - |
| 1777287609 | 18.89° C | 42% | 1019.9 hPa | 0 mm | - | - | - |
| 1777285810 | 17.78° C | 45% | 1019.9 hPa | 0 mm | - | - | - |
| 1777219210 | 18.33° C | 36% | 1019.3 hPa | 0 mm | - | - | - |
| 1777217409 | 18.89° C | 33% | 1019.3 hPa | 0 mm | - | - | - |
| 1777213810 | 19.44° C | 37% | 1019.3 hPa | 0 mm | - | - | - |
| 1777212011 | 18.89° C | 40% | 1019.9 hPa | 0 mm | - | - | - |
| 1777208410 | 18.33° C | 41% | 1020.3 hPa | 0 mm | - | - | - |
| 1777204810 | 17.78° C | 42% | 1020.6 hPa | 0 mm | - | - | - |
| 1777203009 | 16.67° C | 47% | 1020.6 hPa | 0 mm | - | - | - |
| 1777201210 | 17.22° C | 49% | 1020.6 hPa | 0 mm | - | - | - |
| 1777138210 | 20.56° C | 24% | 1016.2 hPa | 0 mm | - | - | - |
| 1777136411 | 20.56° C | 23% | 1016.2 hPa | 0 mm | - | - | - |
| 1777134611 | 20.56° C | 22% | 1015.9 hPa | 0 mm | - | - | - |
| 1777132810 | 20.56° C | 22% | 1015.9 hPa | 0 mm | - | - | - |
| 1777125610 | 19.44° C | 21% | 1016.2 hPa | 0 mm | - | - | - |
| 1777122009 | 18.89° C | 23% | 1016.5 hPa | 0 mm | - | - | - |
| 1777120210 | 18.33° C | 24% | 1016.9 hPa | 0 mm | - | - | - |
| 1777118410 | 17.22° C | 27% | 1016.9 hPa | 0 mm | - | - | - |
| 1777116610 | 17.22° C | 29% | 1016.9 hPa | 0 mm | - | - | - |
* Rain latest hour (hover to see other rain measurements)
** Current wind speed in m/s (hover to see current wind gust speed)